Time;durP1;ratioP1;P1;durP2;ratioP2;P2;SDS_P1;SDS_P2;PMS_P1;PMS_P2;Temp;Humidity;BMP_temperature;BMP_pressure;BME280_temperature;BME280_humidity;BME280_pressure;Samples;Min_cycle;Max_cycle;Signal;HPM_P1;HPM_P2
2022/12/08 17:49:15;;;;;;;15.07;7.85;;;18.90;53.80;;;;;;5068461;28;20906;-76
2022/12/08 17:51:40;;;;;;;21.33;5.97;;;18.90;54.60;;;;;;5068828;28;20041;-77
2022/12/08 17:54:06;;;;;;;13.60;4.68;;;19.00;53.90;;;;;;5068847;28;20090;-85
2022/12/08 17:56:32;;;;;;;12.35;5.35;;;19.00;54.20;;;;;;5066071;28;20029;-73
2022/12/08 17:58:58;;;;;;;12.95;4.78;;;19.00;54.20;;;;;;5067012;28;20060;-75
2022/12/08 18:01:24;;;;;;;11.95;5.25;;;19.00;54.30;;;;;;5068996;28;20059;-75
2022/12/08 18:03:50;;;;;;;13.40;5.03;;;19.00;54.20;;;;;;5068695;28;20036;-75
2022/12/08 18:06:16;;;;;;;13.55;4.38;;;19.00;54.20;;;;;;5050645;28;20029;-78
2022/12/08 18:08:42;;;;;;;13.13;5.07;;;19.00;54.50;;;;;;5067294;28;20600;-76
2022/12/08 18:11:15;;;;;;;11.30;5.00;;;19.10;55.30;;;;;;5057035;28;20033;-77
2022/12/08 18:13:41;;;;;;;11.55;4.85;;;19.10;54.50;;;;;;5063825;28;20036;-76
2022/12/08 18:16:10;;;;;;;12.75;4.90;;;19.10;54.50;;;;;;5064801;28;20025;-75
2022/12/08 18:18:36;;;;;;;10.52;4.60;;;19.10;54.40;;;;;;5062081;28;20025;-75
2022/12/08 18:21:01;;;;;;;11.43;4.60;;;19.10;54.50;;;;;;5065983;28;20079;-75
2022/12/08 18:23:27;;;;;;;11.02;4.45;;;19.00;54.40;;;;;;5075629;28;20033;-76
2022/12/08 18:25:53;;;;;;;12.35;4.90;;;19.10;54.50;;;;;;5044089;28;20400;-76
2022/12/08 18:28:19;;;;;;;13.55;5.07;;;19.10;54.50;;;;;;5063825;28;20029;-77
2022/12/08 18:30:45;;;;;;;9.10;4.45;;;19.10;54.60;;;;;;5064689;28;20134;-77
2022/12/08 18:33:10;;;;;;;7.05;4.20;;;19.00;54.40;;;;;;5066144;28;20024;-76
2022/12/08 18:35:38;;;;;;;8.98;4.50;;;19.00;54.30;;;;;;5065933;28;20025;-76
2022/12/08 18:38:04;;;;;;;8.55;4.60;;;19.10;54.30;;;;;;5064818;28;20124;-80
2022/12/08 18:40:30;;;;;;;12.32;5.30;;;19.10;54.20;;;;;;5063463;28;20479;-78
2022/12/08 18:42:55;;;;;;;10.95;4.72;;;19.10;54.00;;;;;;5062874;28;20071;-76
2022/12/08 18:45:21;;;;;;;11.65;4.60;;;19.10;54.20;;;;;;5065573;28;20040;-75
2022/12/08 18:47:50;;;;;;;10.43;5.07;;;19.10;54.20;;;;;;5065721;28;20435;-79
2022/12/08 18:50:16;;;;;;;8.60;4.50;;;19.10;54.30;;;;;;5064690;28;20029;-79
2022/12/08 18:52:43;;;;;;;10.52;4.60;;;19.10;54.10;;;;;;5064802;28;20029;-77
2022/12/08 18:55:09;;;;;;;9.27;4.50;;;19.10;54.20;;;;;;5065389;28;20029;-76
2022/12/08 18:57:37;;;;;;;8.20;4.40;;;19.10;54.10;;;;;;5066102;28;20029;-78
2022/12/08 19:00:05;;;;;;;11.32;4.70;;;19.10;54.20;;;;;;5054901;28;20086;-78
2022/12/08 19:02:31;;;;;;;9.13;4.43;;;19.10;54.20;;;;;;5048601;28;20033;-79
2022/12/08 19:04:57;;;;;;;7.78;4.78;;;19.10;54.30;;;;;;5051603;28;20056;-77
2022/12/08 19:07:23;;;;;;;7.13;4.30;;;19.10;54.20;;;;;;5051973;28;20061;-76
2022/12/08 19:09:49;;;;;;;9.32;4.57;;;19.10;54.30;;;;;;5048682;28;20017;-79
2022/12/08 19:12:15;;;;;;;12.10;4.65;;;19.10;54.40;;;;;;5047817;28;20032;-74
2022/12/08 19:14:41;;;;;;;7.00;4.70;;;19.10;54.40;;;;;;5032142;28;20335;-76
2022/12/08 19:17:07;;;;;;;10.02;4.85;;;19.20;54.60;;;;;;5051184;28;20049;-76
2022/12/08 19:19:33;;;;;;;13.30;5.55;;;19.30;54.00;;;;;;5052180;28;20391;-74
2022/12/08 19:21:59;;;;;;;12.45;5.05;;;19.30;54.30;;;;;;5051374;28;20084;-75
2022/12/08 19:24:25;;;;;;;9.82;4.72;;;19.30;55.40;;;;;;5051965;28;20032;-75
2022/12/08 19:26:51;;;;;;;19.83;5.15;;;19.40;55.50;;;;;;5051455;28;20056;-77
2022/12/08 19:29:17;;;;;;;13.45;4.78;;;19.40;58.10;;;;;;5051647;28;20381;-76
2022/12/08 19:31:42;;;;;;;14.23;4.65;;;19.40;55.80;;;;;;5050379;28;20033;-75
2022/12/08 19:34:10;;;;;;;17.52;5.40;;;19.40;56.40;;;;;;5034388;28;20078;-75
2022/12/08 19:36:41;;;;;;;12.07;5.85;;;19.50;57.10;;;;;;5034600;28;20021;-76
2022/12/08 19:44:52;;;;;;;28.27;5.70;;;19.50;58.40;;;;;;5053148;28;20484;-75
2022/12/08 19:47:23;;;;;;;14.15;4.90;;;19.50;57.30;;;;;;5053295;28;20044;-75
2022/12/08 19:49:49;;;;;;;21.42;4.80;;;19.50;58.00;;;;;;5049051;28;20498;-76
2022/12/08 19:52:16;;;;;;;15.18;5.18;;;19.50;57.80;;;;;;5044979;28;20032;-75
2022/12/08 19:54:42;;;;;;;21.35;5.85;;;19.50;58.50;;;;;;5051828;28;20539;-75
